sensor_id;sensor_type;location;lat;lon;timestamp;P1;durP1;ratioP1;P2;durP2;ratioP2
35150;SDS011;55720;51.972;4.624;2023-09-07T00:01:14;15.43;;;11.53;;
35150;SDS011;55720;51.972;4.624;2023-09-07T00:03:39;16.37;;;11.33;;
35150;SDS011;55720;51.972;4.624;2023-09-07T00:06:06;15.70;;;12.05;;
35150;SDS011;55720;51.972;4.624;2023-09-07T00:08:31;14.48;;;12.05;;
35150;SDS011;55720;51.972;4.624;2023-09-07T00:11:02;12.90;;;11.55;;
35150;SDS011;55720;51.972;4.624;2023-09-07T00:13:27;14.93;;;11.20;;
35150;SDS011;55720;51.972;4.624;2023-09-07T00:15:53;13.83;;;11.40;;
35150;SDS011;55720;51.972;4.624;2023-09-07T00:18:18;18.53;;;12.50;;
35150;SDS011;55720;51.972;4.624;2023-09-07T00:20:43;16.27;;;12.20;;
35150;SDS011;55720;51.972;4.624;2023-09-07T00:23:08;16.17;;;12.20;;
35150;SDS011;55720;51.972;4.624;2023-09-07T00:25:33;14.43;;;11.63;;
35150;SDS011;55720;51.972;4.624;2023-09-07T00:27:59;15.30;;;11.53;;
35150;SDS011;55720;51.972;4.624;2023-09-07T00:30:24;12.70;;;11.00;;
35150;SDS011;55720;51.972;4.624;2023-09-07T00:32:49;15.73;;;11.88;;
35150;SDS011;55720;51.972;4.624;2023-09-07T00:35:14;13.57;;;10.87;;
35150;SDS011;55720;51.972;4.624;2023-09-07T00:37:40;16.93;;;12.03;;
35150;SDS011;55720;51.972;4.624;2023-09-07T00:40:05;13.70;;;11.53;;
35150;SDS011;55720;51.972;4.624;2023-09-07T00:42:33;13.90;;;11.13;;
35150;SDS011;55720;51.972;4.624;2023-09-07T00:44:59;16.87;;;11.33;;
35150;SDS011;55720;51.972;4.624;2023-09-07T00:47:24;12.90;;;10.80;;
35150;SDS011;55720;51.972;4.624;2023-09-07T00:49:49;14.97;;;11.03;;
35150;SDS011;55720;51.972;4.624;2023-09-07T00:52:15;13.90;;;11.07;;
35150;SDS011;55720;51.972;4.624;2023-09-07T00:54:41;16.05;;;12.13;;
35150;SDS011;55720;51.972;4.624;2023-09-07T00:57:07;15.88;;;11.73;;
35150;SDS011;55720;51.972;4.624;2023-09-07T00:59:32;15.90;;;12.25;;
35150;SDS011;55720;51.972;4.624;2023-09-07T01:01:58;17.05;;;11.75;;
35150;SDS011;55720;51.972;4.624;2023-09-07T01:04:23;17.17;;;12.73;;
35150;SDS011;55720;51.972;4.624;2023-09-07T01:06:56;15.50;;;10.60;;
35150;SDS011;55720;51.972;4.624;2023-09-07T01:09:23;14.98;;;12.48;;
35150;SDS011;55720;51.972;4.624;2023-09-07T01:11:49;15.32;;;12.77;;
35150;SDS011;55720;51.972;4.624;2023-09-07T01:14:15;15.38;;;11.73;;
35150;SDS011;55720;51.972;4.624;2023-09-07T01:16:40;16.27;;;11.82;;
35150;SDS011;55720;51.972;4.624;2023-09-07T01:19:06;18.90;;;12.70;;
35150;SDS011;55720;51.972;4.624;2023-09-07T01:21:34;16.40;;;12.77;;
35150;SDS011;55720;51.972;4.624;2023-09-07T01:24:00;16.33;;;12.70;;
35150;SDS011;55720;51.972;4.624;2023-09-07T01:26:26;15.35;;;13.45;;
35150;SDS011;55720;51.972;4.624;2023-09-07T01:28:51;17.83;;;13.55;;
35150;SDS011;55720;51.972;4.624;2023-09-07T01:31:17;20.33;;;14.13;;
35150;SDS011;55720;51.972;4.624;2023-09-07T01:33:42;18.77;;;13.65;;
35150;SDS011;55720;51.972;4.624;2023-09-07T01:36:07;27.37;;;14.10;;
35150;SDS011;55720;51.972;4.624;2023-09-07T01:38:32;20.63;;;13.60;;
35150;SDS011;55720;51.972;4.624;2023-09-07T01:40:58;18.40;;;14.30;;
35150;SDS011;55720;51.972;4.624;2023-09-07T01:43:23;19.17;;;13.48;;
35150;SDS011;55720;51.972;4.624;2023-09-07T01:45:48;17.17;;;13.63;;
35150;SDS011;55720;51.972;4.624;2023-09-07T01:48:14;20.70;;;14.80;;
35150;SDS011;55720;51.972;4.624;2023-09-07T01:50:39;18.50;;;14.10;;
35150;SDS011;55720;51.972;4.624;2023-09-07T01:53:04;15.73;;;13.05;;
35150;SDS011;55720;51.972;4.624;2023-09-07T01:55:33;17.15;;;13.60;;
35150;SDS011;55720;51.972;4.624;2023-09-07T01:57:58;17.60;;;13.05;;
35150;SDS011;55720;51.972;4.624;2023-09-07T02:00:23;17.13;;;13.30;;
35150;SDS011;55720;51.972;4.624;2023-09-07T02:02:48;19.38;;;13.32;;
35150;SDS011;55720;51.972;4.624;2023-09-07T02:05:14;19.80;;;13.43;;
35150;SDS011;55720;51.972;4.624;2023-09-07T02:07:40;16.08;;;13.38;;
35150;SDS011;55720;51.972;4.624;2023-09-07T02:10:06;15.27;;;13.18;;
35150;SDS011;55720;51.972;4.624;2023-09-07T02:12:31;18.77;;;13.65;;
35150;SDS011;55720;51.972;4.624;2023-09-07T02:14:58;17.97;;;14.57;;
35150;SDS011;55720;51.972;4.624;2023-09-07T02:17:23;17.92;;;13.77;;
35150;SDS011;55720;51.972;4.624;2023-09-07T02:19:49;19.67;;;14.15;;
35150;SDS011;55720;51.972;4.624;2023-09-07T02:22:15;16.88;;;13.57;;
35150;SDS011;55720;51.972;4.624;2023-09-07T02:24:40;18.88;;;14.35;;
35150;SDS011;55720;51.972;4.624;2023-09-07T02:27:05;17.08;;;13.85;;
35150;SDS011;55720;51.972;4.624;2023-09-07T02:29:31;22.08;;;14.45;;
35150;SDS011;55720;51.972;4.624;2023-09-07T02:31:56;18.67;;;14.73;;
35150;SDS011;55720;51.972;4.624;2023-09-07T02:34:22;20.73;;;14.65;;
35150;SDS011;55720;51.972;4.624;2023-09-07T02:36:47;20.07;;;14.10;;
35150;SDS011;55720;51.972;4.624;2023-09-07T02:39:13;19.27;;;14.30;;
35150;SDS011;55720;51.972;4.624;2023-09-07T02:41:38;18.95;;;13.48;;
35150;SDS011;55720;51.972;4.624;2023-09-07T02:44:04;18.83;;;14.63;;
35150;SDS011;55720;51.972;4.624;2023-09-07T02:46:29;23.42;;;14.95;;
35150;SDS011;55720;51.972;4.624;2023-09-07T02:48:55;24.17;;;14.40;;
35150;SDS011;55720;51.972;4.624;2023-09-07T02:51:22;21.45;;;15.50;;
35150;SDS011;55720;51.972;4.624;2023-09-07T02:53:47;19.83;;;15.30;;
35150;SDS011;55720;51.972;4.624;2023-09-07T02:56:13;28.67;;;16.33;;
35150;SDS011;55720;51.972;4.624;2023-09-07T02:58:38;21.52;;;15.82;;
35150;SDS011;55720;51.972;4.624;2023-09-07T03:01:07;19.73;;;15.25;;
35150;SDS011;55720;51.972;4.624;2023-09-07T03:03:35;24.33;;;15.45;;
35150;SDS011;55720;51.972;4.624;2023-09-07T03:08:53;24.00;;;16.45;;
35150;SDS011;55720;51.972;4.624;2023-09-07T03:11:18;23.95;;;15.52;;
35150;SDS011;55720;51.972;4.624;2023-09-07T03:13:43;20.30;;;15.52;;
35150;SDS011;55720;51.972;4.624;2023-09-07T03:16:08;21.73;;;16.23;;
35150;SDS011;55720;51.972;4.624;2023-09-07T03:18:34;26.10;;;18.05;;
35150;SDS011;55720;51.972;4.624;2023-09-07T03:21:00;27.97;;;18.13;;
35150;SDS011;55720;51.972;4.624;2023-09-07T03:23:26;26.83;;;17.65;;
35150;SDS011;55720;51.972;4.624;2023-09-07T03:25:51;28.83;;;18.30;;
35150;SDS011;55720;51.972;4.624;2023-09-07T03:28:17;28.08;;;19.30;;
35150;SDS011;55720;51.972;4.624;2023-09-07T03:30:42;28.53;;;19.83;;
35150;SDS011;55720;51.972;4.624;2023-09-07T03:33:07;26.97;;;18.93;;
35150;SDS011;55720;51.972;4.624;2023-09-07T03:35:32;26.07;;;18.47;;
35150;SDS011;55720;51.972;4.624;2023-09-07T03:37:58;30.73;;;20.33;;
35150;SDS011;55720;51.972;4.624;2023-09-07T03:40:23;29.27;;;20.65;;
35150;SDS011;55720;51.972;4.624;2023-09-07T03:42:48;31.53;;;19.47;;
35150;SDS011;55720;51.972;4.624;2023-09-07T03:45:14;29.45;;;19.63;;
35150;SDS011;55720;51.972;4.624;2023-09-07T03:47:39;29.27;;;19.07;;
35150;SDS011;55720;51.972;4.624;2023-09-07T03:50:04;28.03;;;20.07;;
35150;SDS011;55720;51.972;4.624;2023-09-07T03:52:30;30.65;;;20.17;;
35150;SDS011;55720;51.972;4.624;2023-09-07T03:54:55;30.55;;;19.65;;
35150;SDS011;55720;51.972;4.624;2023-09-07T03:57:21;26.27;;;19.17;;
35150;SDS011;55720;51.972;4.624;2023-09-07T03:59:47;30.63;;;19.23;;
35150;SDS011;55720;51.972;4.624;2023-09-07T04:02:12;27.88;;;18.48;;
35150;SDS011;55720;51.972;4.624;2023-09-07T04:04:37;28.47;;;19.00;;
35150;SDS011;55720;51.972;4.624;2023-09-07T04:07:03;31.38;;;19.20;;
35150;SDS011;55720;51.972;4.624;2023-09-07T04:09:28;33.58;;;21.25;;
35150;SDS011;55720;51.972;4.624;2023-09-07T04:11:53;29.80;;;20.00;;
35150;SDS011;55720;51.972;4.624;2023-09-07T04:14:18;33.73;;;20.63;;
35150;SDS011;55720;51.972;4.624;2023-09-07T04:16:44;31.67;;;20.67;;
35150;SDS011;55720;51.972;4.624;2023-09-07T04:19:09;31.67;;;21.30;;
35150;SDS011;55720;51.972;4.624;2023-09-07T04:21:35;30.43;;;20.57;;
35150;SDS011;55720;51.972;4.624;2023-09-07T04:24:01;31.60;;;20.65;;
35150;SDS011;55720;51.972;4.624;2023-09-07T04:26:26;32.63;;;20.77;;
35150;SDS011;55720;51.972;4.624;2023-09-07T04:28:51;29.43;;;19.33;;
35150;SDS011;55720;51.972;4.624;2023-09-07T04:31:16;29.00;;;19.50;;
35150;SDS011;55720;51.972;4.624;2023-09-07T04:33:41;29.17;;;20.63;;
35150;SDS011;55720;51.972;4.624;2023-09-07T04:36:10;33.80;;;21.60;;
35150;SDS011;55720;51.972;4.624;2023-09-07T04:38:35;40.05;;;23.02;;
35150;SDS011;55720;51.972;4.624;2023-09-07T04:41:10;36.78;;;22.63;;
35150;SDS011;55720;51.972;4.624;2023-09-07T04:43:36;35.17;;;22.30;;
35150;SDS011;55720;51.972;4.624;2023-09-07T04:46:01;32.88;;;21.98;;
35150;SDS011;55720;51.972;4.624;2023-09-07T04:48:28;33.75;;;22.15;;
35150;SDS011;55720;51.972;4.624;2023-09-07T04:51:02;35.83;;;23.33;;
35150;SDS011;55720;51.972;4.624;2023-09-07T04:53:34;34.92;;;23.42;;
35150;SDS011;55720;51.972;4.624;2023-09-07T04:56:00;42.53;;;23.92;;
35150;SDS011;55720;51.972;4.624;2023-09-07T04:58:25;40.17;;;24.00;;
35150;SDS011;55720;51.972;4.624;2023-09-07T05:00:51;39.88;;;24.83;;
35150;SDS011;55720;51.972;4.624;2023-09-07T05:03:16;41.88;;;25.95;;
35150;SDS011;55720;51.972;4.624;2023-09-07T05:05:42;40.27;;;24.10;;
35150;SDS011;55720;51.972;4.624;2023-09-07T05:08:07;39.22;;;24.65;;
35150;SDS011;55720;51.972;4.624;2023-09-07T05:10:32;38.80;;;24.97;;
35150;SDS011;55720;51.972;4.624;2023-09-07T05:12:58;37.67;;;24.52;;
35150;SDS011;55720;51.972;4.624;2023-09-07T05:15:23;36.08;;;25.38;;
35150;SDS011;55720;51.972;4.624;2023-09-07T05:17:49;41.10;;;25.27;;
35150;SDS011;55720;51.972;4.624;2023-09-07T05:20:14;37.17;;;23.77;;
35150;SDS011;55720;51.972;4.624;2023-09-07T05:22:39;36.57;;;22.70;;
35150;SDS011;55720;51.972;4.624;2023-09-07T05:25:06;34.45;;;21.83;;
35150;SDS011;55720;51.972;4.624;2023-09-07T05:27:31;32.40;;;22.10;;
35150;SDS011;55720;51.972;4.624;2023-09-07T05:29:56;36.37;;;22.33;;
35150;SDS011;55720;51.972;4.624;2023-09-07T05:32:21;28.93;;;20.80;;
35150;SDS011;55720;51.972;4.624;2023-09-07T05:34:46;33.10;;;23.03;;
35150;SDS011;55720;51.972;4.624;2023-09-07T05:37:12;37.27;;;22.70;;
35150;SDS011;55720;51.972;4.624;2023-09-07T05:39:37;33.33;;;22.83;;
35150;SDS011;55720;51.972;4.624;2023-09-07T05:42:02;36.13;;;22.80;;
35150;SDS011;55720;51.972;4.624;2023-09-07T05:44:27;33.53;;;22.33;;
35150;SDS011;55720;51.972;4.624;2023-09-07T05:46:53;36.77;;;22.27;;
35150;SDS011;55720;51.972;4.624;2023-09-07T05:49:19;37.83;;;22.63;;
35150;SDS011;55720;51.972;4.624;2023-09-07T05:51:44;37.15;;;23.10;;
35150;SDS011;55720;51.972;4.624;2023-09-07T05:54:09;37.97;;;23.03;;
35150;SDS011;55720;51.972;4.624;2023-09-07T05:56:34;34.90;;;22.23;;
35150;SDS011;55720;51.972;4.624;2023-09-07T05:59:00;36.23;;;23.07;;
35150;SDS011;55720;51.972;4.624;2023-09-07T06:01:25;34.10;;;21.80;;
35150;SDS011;55720;51.972;4.624;2023-09-07T06:03:50;34.58;;;22.48;;
35150;SDS011;55720;51.972;4.624;2023-09-07T06:06:15;34.27;;;21.17;;
35150;SDS011;55720;51.972;4.624;2023-09-07T06:08:41;34.67;;;22.13;;
35150;SDS011;55720;51.972;4.624;2023-09-07T06:11:06;32.80;;;21.40;;
35150;SDS011;55720;51.972;4.624;2023-09-07T06:13:31;30.33;;;21.07;;
35150;SDS011;55720;51.972;4.624;2023-09-07T06:15:56;27.15;;;19.80;;
35150;SDS011;55720;51.972;4.624;2023-09-07T06:18:22;30.67;;;20.43;;
35150;SDS011;55720;51.972;4.624;2023-09-07T06:20:47;27.17;;;19.57;;
35150;SDS011;55720;51.972;4.624;2023-09-07T06:23:12;31.52;;;19.25;;
35150;SDS011;55720;51.972;4.624;2023-09-07T06:25:37;27.50;;;18.95;;
35150;SDS011;55720;51.972;4.624;2023-09-07T06:28:03;28.63;;;18.00;;
35150;SDS011;55720;51.972;4.624;2023-09-07T06:30:28;25.15;;;17.50;;
35150;SDS011;55720;51.972;4.624;2023-09-07T06:32:53;27.33;;;17.90;;
35150;SDS011;55720;51.972;4.624;2023-09-07T06:35:19;26.45;;;17.73;;
35150;SDS011;55720;51.972;4.624;2023-09-07T06:37:44;20.27;;;15.40;;
35150;SDS011;55720;51.972;4.624;2023-09-07T06:40:09;20.38;;;15.20;;
35150;SDS011;55720;51.972;4.624;2023-09-07T06:42:35;18.98;;;12.98;;
35150;SDS011;55720;51.972;4.624;2023-09-07T06:45:00;18.40;;;11.87;;
35150;SDS011;55720;51.972;4.624;2023-09-07T06:47:25;15.73;;;12.90;;
35150;SDS011;55720;51.972;4.624;2023-09-07T06:49:50;18.53;;;11.87;;
35150;SDS011;55720;51.972;4.624;2023-09-07T06:52:16;16.80;;;12.30;;
35150;SDS011;55720;51.972;4.624;2023-09-07T06:54:41;15.10;;;11.70;;
35150;SDS011;55720;51.972;4.624;2023-09-07T06:57:06;17.33;;;11.73;;
35150;SDS011;55720;51.972;4.624;2023-09-07T06:59:33;19.63;;;12.48;;
35150;SDS011;55720;51.972;4.624;2023-09-07T07:01:58;16.93;;;11.33;;
35150;SDS011;55720;51.972;4.624;2023-09-07T07:04:25;14.55;;;11.35;;
35150;SDS011;55720;51.972;4.624;2023-09-07T07:06:50;16.10;;;12.15;;
35150;SDS011;55720;51.972;4.624;2023-09-07T07:09:15;16.53;;;11.10;;
35150;SDS011;55720;51.972;4.624;2023-09-07T07:11:40;16.10;;;11.97;;
35150;SDS011;55720;51.972;4.624;2023-09-07T07:14:07;18.77;;;12.15;;
35150;SDS011;55720;51.972;4.624;2023-09-07T07:16:33;14.45;;;12.07;;
35150;SDS011;55720;51.972;4.624;2023-09-07T07:18:59;19.05;;;12.30;;
35150;SDS011;55720;51.972;4.624;2023-09-07T07:21:24;15.33;;;11.47;;
35150;SDS011;55720;51.972;4.624;2023-09-07T07:23:49;15.18;;;11.23;;
35150;SDS011;55720;51.972;4.624;2023-09-07T07:26:14;13.18;;;11.05;;
35150;SDS011;55720;51.972;4.624;2023-09-07T07:28:40;13.47;;;11.57;;
35150;SDS011;55720;51.972;4.624;2023-09-07T07:31:08;17.20;;;12.43;;
35150;SDS011;55720;51.972;4.624;2023-09-07T07:33:34;13.07;;;10.65;;
35150;SDS011;55720;51.972;4.624;2023-09-07T07:35:59;14.33;;;10.63;;
35150;SDS011;55720;51.972;4.624;2023-09-07T07:38:24;14.73;;;10.87;;
35150;SDS011;55720;51.972;4.624;2023-09-07T07:40:50;14.30;;;9.97;;
35150;SDS011;55720;51.972;4.624;2023-09-07T07:43:16;15.23;;;10.95;;
35150;SDS011;55720;51.972;4.624;2023-09-07T07:45:42;13.30;;;10.60;;
35150;SDS011;55720;51.972;4.624;2023-09-07T07:48:07;15.10;;;10.10;;
35150;SDS011;55720;51.972;4.624;2023-09-07T07:50:36;13.77;;;10.25;;
35150;SDS011;55720;51.972;4.624;2023-09-07T07:53:01;12.27;;;10.15;;
35150;SDS011;55720;51.972;4.624;2023-09-07T07:55:26;13.70;;;9.57;;
35150;SDS011;55720;51.972;4.624;2023-09-07T07:57:52;11.80;;;9.60;;
35150;SDS011;55720;51.972;4.624;2023-09-07T08:00:17;17.10;;;10.23;;
35150;SDS011;55720;51.972;4.624;2023-09-07T08:02:42;13.65;;;9.60;;
35150;SDS011;55720;51.972;4.624;2023-09-07T08:05:09;12.65;;;9.43;;
35150;SDS011;55720;51.972;4.624;2023-09-07T08:07:34;10.57;;;9.45;;
35150;SDS011;55720;51.972;4.624;2023-09-07T08:09:59;15.67;;;9.73;;
35150;SDS011;55720;51.972;4.624;2023-09-07T08:12:24;13.60;;;9.33;;
35150;SDS011;55720;51.972;4.624;2023-09-07T08:14:49;13.55;;;9.38;;
35150;SDS011;55720;51.972;4.624;2023-09-07T08:17:15;15.88;;;9.70;;
35150;SDS011;55720;51.972;4.624;2023-09-07T08:19:40;10.77;;;8.43;;
35150;SDS011;55720;51.972;4.624;2023-09-07T08:22:05;12.45;;;8.02;;
35150;SDS011;55720;51.972;4.624;2023-09-07T08:24:31;9.80;;;6.82;;
35150;SDS011;55720;51.972;4.624;2023-09-07T08:26:56;8.85;;;6.63;;
35150;SDS011;55720;51.972;4.624;2023-09-07T08:29:22;8.40;;;6.88;;
35150;SDS011;55720;51.972;4.624;2023-09-07T08:31:51;8.03;;;6.57;;
35150;SDS011;55720;51.972;4.624;2023-09-07T08:34:16;10.18;;;7.28;;
35150;SDS011;55720;51.972;4.624;2023-09-07T08:36:42;7.55;;;6.47;;
35150;SDS011;55720;51.972;4.624;2023-09-07T08:39:07;10.90;;;6.68;;
35150;SDS011;55720;51.972;4.624;2023-09-07T08:41:38;9.55;;;6.95;;
35150;SDS011;55720;51.972;4.624;2023-09-07T08:44:07;7.43;;;6.75;;
35150;SDS011;55720;51.972;4.624;2023-09-07T08:46:33;9.75;;;7.13;;
35150;SDS011;55720;51.972;4.624;2023-09-07T08:48:59;7.15;;;6.55;;
35150;SDS011;55720;51.972;4.624;2023-09-07T08:51:26;7.50;;;6.45;;
35150;SDS011;55720;51.972;4.624;2023-09-07T08:53:53;8.07;;;6.70;;
35150;SDS011;55720;51.972;4.624;2023-09-07T08:56:18;9.13;;;6.40;;
35150;SDS011;55720;51.972;4.624;2023-09-07T08:58:44;6.85;;;6.15;;
35150;SDS011;55720;51.972;4.624;2023-09-07T09:01:10;8.17;;;6.40;;
35150;SDS011;55720;51.972;4.624;2023-09-07T09:03:36;8.88;;;7.13;;
35150;SDS011;55720;51.972;4.624;2023-09-07T09:06:01;13.13;;;6.72;;
35150;SDS011;55720;51.972;4.624;2023-09-07T09:08:26;6.65;;;5.93;;
35150;SDS011;55720;51.972;4.624;2023-09-07T09:10:58;8.90;;;6.43;;
35150;SDS011;55720;51.972;4.624;2023-09-07T09:13:27;11.82;;;6.63;;
35150;SDS011;55720;51.972;4.624;2023-09-07T09:15:53;10.07;;;6.97;;
35150;SDS011;55720;51.972;4.624;2023-09-07T09:18:18;9.23;;;6.57;;
35150;SDS011;55720;51.972;4.624;2023-09-07T09:20:43;10.45;;;7.00;;
35150;SDS011;55720;51.972;4.624;2023-09-07T09:23:08;8.50;;;6.60;;
35150;SDS011;55720;51.972;4.624;2023-09-07T09:25:36;11.15;;;7.05;;
35150;SDS011;55720;51.972;4.624;2023-09-07T09:28:01;9.03;;;6.57;;
35150;SDS011;55720;51.972;4.624;2023-09-07T09:30:27;10.52;;;6.40;;
35150;SDS011;55720;51.972;4.624;2023-09-07T09:32:52;14.10;;;8.60;;
35150;SDS011;55720;51.972;4.624;2023-09-07T09:35:18;11.70;;;7.50;;
35150;SDS011;55720;51.972;4.624;2023-09-07T09:37:48;8.40;;;7.18;;
35150;SDS011;55720;51.972;4.624;2023-09-07T09:40:15;8.13;;;6.95;;
35150;SDS011;55720;51.972;4.624;2023-09-07T09:42:44;6.55;;;5.95;;
35150;SDS011;55720;51.972;4.624;2023-09-07T09:45:10;7.63;;;6.60;;
35150;SDS011;55720;51.972;4.624;2023-09-07T09:47:39;7.43;;;6.25;;
35150;SDS011;55720;51.972;4.624;2023-09-07T09:50:06;9.02;;;5.65;;
35150;SDS011;55720;51.972;4.624;2023-09-07T09:52:31;11.13;;;6.03;;
35150;SDS011;55720;51.972;4.624;2023-09-07T09:54:58;6.85;;;5.78;;
35150;SDS011;55720;51.972;4.624;2023-09-07T09:57:25;9.45;;;5.93;;
35150;SDS011;55720;51.972;4.624;2023-09-07T09:59:50;8.23;;;5.43;;
35150;SDS011;55720;51.972;4.624;2023-09-07T10:02:17;6.40;;;5.82;;
35150;SDS011;55720;51.972;4.624;2023-09-07T10:04:42;6.60;;;5.97;;
35150;SDS011;55720;51.972;4.624;2023-09-07T10:07:07;6.25;;;5.63;;
35150;SDS011;55720;51.972;4.624;2023-09-07T10:09:33;6.53;;;5.47;;
35150;SDS011;55720;51.972;4.624;2023-09-07T10:11:58;6.15;;;5.55;;
35150;SDS011;55720;51.972;4.624;2023-09-07T10:14:24;6.15;;;5.07;;
35150;SDS011;55720;51.972;4.624;2023-09-07T10:16:50;10.70;;;5.20;;
35150;SDS011;55720;51.972;4.624;2023-09-07T10:19:18;8.48;;;5.35;;
35150;SDS011;55720;51.972;4.624;2023-09-07T10:21:44;6.95;;;4.88;;
35150;SDS011;55720;51.972;4.624;2023-09-07T10:24:09;6.18;;;4.65;;
35150;SDS011;55720;51.972;4.624;2023-09-07T10:26:34;5.85;;;4.90;;
35150;SDS011;55720;51.972;4.624;2023-09-07T10:29:00;6.00;;;4.77;;
35150;SDS011;55720;51.972;4.624;2023-09-07T10:31:28;7.15;;;5.05;;
35150;SDS011;55720;51.972;4.624;2023-09-07T10:33:55;7.53;;;4.30;;
35150;SDS011;55720;51.972;4.624;2023-09-07T10:36:22;6.82;;;5.53;;
35150;SDS011;55720;51.972;4.624;2023-09-07T10:38:47;5.22;;;4.72;;
35150;SDS011;55720;51.972;4.624;2023-09-07T10:41:12;6.38;;;4.53;;
35150;SDS011;55720;51.972;4.624;2023-09-07T10:43:46;6.10;;;3.83;;
35150;SDS011;55720;51.972;4.624;2023-09-07T10:46:11;5.00;;;4.50;;
35150;SDS011;55720;51.972;4.624;2023-09-07T10:48:36;5.77;;;4.33;;
35150;SDS011;55720;51.972;4.624;2023-09-07T10:51:01;8.37;;;4.53;;
35150;SDS011;55720;51.972;4.624;2023-09-07T10:53:28;4.30;;;3.90;;
35150;SDS011;55720;51.972;4.624;2023-09-07T10:55:56;4.30;;;3.90;;
35150;SDS011;55720;51.972;4.624;2023-09-07T10:58:25;5.43;;;3.38;;
35150;SDS011;55720;51.972;4.624;2023-09-07T11:00:52;5.20;;;3.83;;
35150;SDS011;55720;51.972;4.624;2023-09-07T11:03:17;7.70;;;3.72;;
35150;SDS011;55720;51.972;4.624;2023-09-07T11:05:42;4.53;;;3.20;;
35150;SDS011;55720;51.972;4.624;2023-09-07T11:08:07;4.57;;;3.40;;
35150;SDS011;55720;51.972;4.624;2023-09-07T11:10:33;6.38;;;3.33;;
35150;SDS011;55720;51.972;4.624;2023-09-07T11:13:01;4.22;;;3.42;;
35150;SDS011;55720;51.972;4.624;2023-09-07T11:15:26;4.07;;;3.58;;
35150;SDS011;55720;51.972;4.624;2023-09-07T11:17:52;3.40;;;3.10;;
35150;SDS011;55720;51.972;4.624;2023-09-07T11:20:20;3.67;;;3.38;;
35150;SDS011;55720;51.972;4.624;2023-09-07T11:22:46;5.10;;;3.40;;
35150;SDS011;55720;51.972;4.624;2023-09-07T11:25:11;5.78;;;3.70;;
35150;SDS011;55720;51.972;4.624;2023-09-07T11:27:39;4.00;;;3.70;;
35150;SDS011;55720;51.972;4.624;2023-09-07T11:30:04;3.38;;;3.08;;
35150;SDS011;55720;51.972;4.624;2023-09-07T11:32:36;3.83;;;3.47;;
35150;SDS011;55720;51.972;4.624;2023-09-07T11:35:01;3.45;;;3.15;;
35150;SDS011;55720;51.972;4.624;2023-09-07T11:37:27;6.03;;;3.00;;
35150;SDS011;55720;51.972;4.624;2023-09-07T11:39:52;5.03;;;3.53;;
35150;SDS011;55720;51.972;4.624;2023-09-07T11:42:17;6.93;;;3.40;;
35150;SDS011;55720;51.972;4.624;2023-09-07T11:44:43;7.90;;;3.00;;
35150;SDS011;55720;51.972;4.624;2023-09-07T11:47:08;8.43;;;2.70;;
35150;SDS011;55720;51.972;4.624;2023-09-07T11:49:33;3.25;;;2.95;;
35150;SDS011;55720;51.972;4.624;2023-09-07T11:51:59;4.83;;;3.10;;
35150;SDS011;55720;51.972;4.624;2023-09-07T11:54:24;6.97;;;3.13;;
35150;SDS011;55720;51.972;4.624;2023-09-07T11:56:49;3.77;;;2.90;;
35150;SDS011;55720;51.972;4.624;2023-09-07T11:59:15;4.25;;;3.17;;
35150;SDS011;55720;51.972;4.624;2023-09-07T12:01:42;5.72;;;3.40;;
35150;SDS011;55720;51.972;4.624;2023-09-07T12:04:07;4.27;;;2.67;;
35150;SDS011;55720;51.972;4.624;2023-09-07T12:06:33;6.78;;;2.97;;
35150;SDS011;55720;51.972;4.624;2023-09-07T12:09:05;7.13;;;3.60;;
35150;SDS011;55720;51.972;4.624;2023-09-07T12:11:42;4.97;;;3.53;;
35150;SDS011;55720;51.972;4.624;2023-09-07T12:14:08;4.93;;;2.78;;
35150;SDS011;55720;51.972;4.624;2023-09-07T12:16:33;3.20;;;2.90;;
35150;SDS011;55720;51.972;4.624;2023-09-07T12:18:59;3.70;;;2.87;;
35150;SDS011;55720;51.972;4.624;2023-09-07T12:21:24;3.40;;;2.50;;
35150;SDS011;55720;51.972;4.624;2023-09-07T12:23:49;4.10;;;2.77;;
35150;SDS011;55720;51.972;4.624;2023-09-07T12:26:14;7.80;;;2.80;;
35150;SDS011;55720;51.972;4.624;2023-09-07T12:28:41;3.80;;;3.15;;
35150;SDS011;55720;51.972;4.624;2023-09-07T12:31:07;2.93;;;2.67;;
35150;SDS011;55720;51.972;4.624;2023-09-07T12:33:32;7.03;;;3.00;;
35150;SDS011;55720;51.972;4.624;2023-09-07T12:35:58;7.88;;;3.03;;
35150;SDS011;55720;51.972;4.624;2023-09-07T12:38:23;5.65;;;2.80;;
35150;SDS011;55720;51.972;4.624;2023-09-07T12:40:52;7.63;;;2.80;;
35150;SDS011;55720;51.972;4.624;2023-09-07T12:43:18;4.63;;;3.08;;
35150;SDS011;55720;51.972;4.624;2023-09-07T12:45:43;5.07;;;2.92;;
35150;SDS011;55720;51.972;4.624;2023-09-07T12:48:08;7.17;;;3.03;;
35150;SDS011;55720;51.972;4.624;2023-09-07T12:50:34;6.20;;;4.20;;
35150;SDS011;55720;51.972;4.624;2023-09-07T12:52:59;4.03;;;2.90;;
35150;SDS011;55720;51.972;4.624;2023-09-07T12:55:24;4.40;;;2.70;;
35150;SDS011;55720;51.972;4.624;2023-09-07T12:57:49;10.20;;;2.88;;
35150;SDS011;55720;51.972;4.624;2023-09-07T13:00:15;9.73;;;3.28;;
35150;SDS011;55720;51.972;4.624;2023-09-07T13:02:41;9.13;;;2.88;;
35150;SDS011;55720;51.972;4.624;2023-09-07T13:05:06;7.50;;;2.87;;
35150;SDS011;55720;51.972;4.624;2023-09-07T13:07:31;5.22;;;3.28;;
35150;SDS011;55720;51.972;4.624;2023-09-07T13:10:00;3.53;;;3.17;;
35150;SDS011;55720;51.972;4.624;2023-09-07T13:12:29;3.87;;;2.70;;
35150;SDS011;55720;51.972;4.624;2023-09-07T13:14:54;4.65;;;2.85;;
35150;SDS011;55720;51.972;4.624;2023-09-07T13:17:19;3.30;;;3.03;;
35150;SDS011;55720;51.972;4.624;2023-09-07T13:19:44;4.43;;;2.97;;
35150;SDS011;55720;51.972;4.624;2023-09-07T13:22:10;5.22;;;3.33;;
35150;SDS011;55720;51.972;4.624;2023-09-07T13:24:35;4.57;;;2.70;;
35150;SDS011;55720;51.972;4.624;2023-09-07T13:27:01;2.63;;;2.42;;
35150;SDS011;55720;51.972;4.624;2023-09-07T13:29:28;3.78;;;2.70;;
35150;SDS011;55720;51.972;4.624;2023-09-07T13:31:53;4.17;;;2.70;;
35150;SDS011;55720;51.972;4.624;2023-09-07T13:34:20;4.45;;;2.63;;
35150;SDS011;55720;51.972;4.624;2023-09-07T13:36:46;2.67;;;2.47;;
35150;SDS011;55720;51.972;4.624;2023-09-07T13:39:11;5.20;;;2.87;;
35150;SDS011;55720;51.972;4.624;2023-09-07T13:41:36;5.73;;;2.70;;
35150;SDS011;55720;51.972;4.624;2023-09-07T13:44:01;4.23;;;2.50;;
35150;SDS011;55720;51.972;4.624;2023-09-07T13:46:26;3.00;;;2.70;;
35150;SDS011;55720;51.972;4.624;2023-09-07T13:48:52;10.40;;;3.27;;
35150;SDS011;55720;51.972;4.624;2023-09-07T13:51:17;4.73;;;2.77;;
35150;SDS011;55720;51.972;4.624;2023-09-07T13:53:42;2.80;;;2.60;;
35150;SDS011;55720;51.972;4.624;2023-09-07T13:56:07;3.07;;;2.77;;
35150;SDS011;55720;51.972;4.624;2023-09-07T13:58:33;3.10;;;2.70;;
35150;SDS011;55720;51.972;4.624;2023-09-07T14:00:58;4.60;;;2.33;;
35150;SDS011;55720;51.972;4.624;2023-09-07T14:03:23;3.57;;;2.40;;
35150;SDS011;55720;51.972;4.624;2023-09-07T14:05:48;4.00;;;2.90;;
35150;SDS011;55720;51.972;4.624;2023-09-07T14:08:14;4.55;;;2.33;;
35150;SDS011;55720;51.972;4.624;2023-09-07T14:10:40;4.93;;;2.57;;
35150;SDS011;55720;51.972;4.624;2023-09-07T14:13:05;5.80;;;2.80;;
35150;SDS011;55720;51.972;4.624;2023-09-07T14:15:30;5.83;;;2.70;;
35150;SDS011;55720;51.972;4.624;2023-09-07T14:17:56;3.20;;;2.90;;
35150;SDS011;55720;51.972;4.624;2023-09-07T14:20:21;3.93;;;2.67;;
35150;SDS011;55720;51.972;4.624;2023-09-07T14:22:47;12.10;;;2.97;;
35150;SDS011;55720;51.972;4.624;2023-09-07T14:25:12;3.60;;;2.63;;
35150;SDS011;55720;51.972;4.624;2023-09-07T14:27:38;3.25;;;2.55;;